Current Weather

Agadez

Agadez, Niger (DRZA)

Report from: Saturday, July 13, 2024 7:00 PM WAT
Current time: Sunday, July 14, 2024 2:46 AM WAT

Nearby weather – Weather history – Daily summaries
Weather forecast

Temperature34.0°C (93.2°F)
Heat index34.1°C (93.4°F)
Dew point16.0°C (60.8°F)
Winds 9 kts (4.6 m/s, 10.4 mph) North (360°)
Clouds Sky clear
Altimeter29.85 in.Hg (1011 mB)
Relative humidity34 %
Density altitude2,486 ft. (758 m)
Remarks Ceiling and visibility OK
Flight conditions Visual Meteorological Conditions
Raw dataDRZA 131800Z 36009KT CAVOK 34/16 Q1011
An error has occurred. This application may no longer respond until reloaded. Reload 🗙